createdAt,value
2022-10-18T00:00:02.343Z,99636.68
2022-10-18T00:02:31.612Z,99639.17
2022-10-18T00:04:58.355Z,99639.90
2022-10-18T00:07:25.181Z,99642.53
2022-10-18T00:09:52.345Z,99637.68
2022-10-18T00:12:19.066Z,99634.20
2022-10-18T00:14:50.077Z,99634.77
2022-10-18T00:17:16.949Z,99636.11
2022-10-18T00:19:44.317Z,99638.52
2022-10-18T00:22:11.056Z,99642.25
2022-10-18T00:24:37.901Z,99640.69
2022-10-18T00:27:04.589Z,99636.52
2022-10-18T00:29:31.466Z,99638.65
2022-10-18T00:31:58.159Z,99636.40
2022-10-18T00:34:25.045Z,99633.01
2022-10-18T00:36:51.777Z,99633.29
2022-10-18T00:39:20.876Z,99633.89
2022-10-18T00:41:48.448Z,99635.10
2022-10-18T00:44:15.130Z,99633.52
2022-10-18T00:46:44.876Z,99631.19
2022-10-18T00:49:20.614Z,99629.65
2022-10-18T00:51:50.223Z,99631.54
2022-10-18T00:54:19.405Z,99632.24
2022-10-18T00:56:46.515Z,99627.69
2022-10-18T00:59:16.130Z,99630.59
2022-10-18T01:01:43.844Z,99623.27
2022-10-18T01:04:12.005Z,99624.22
2022-10-18T01:06:50.681Z,99620.81
2022-10-18T01:09:29.228Z,99624.45
2022-10-18T01:12:09.865Z,99625.73
2022-10-18T01:14:48.696Z,99625.98
2022-10-18T01:17:23.162Z,99622.98
2022-10-18T01:20:17.575Z,99624.15
2022-10-18T01:22:50.063Z,99625.55
2022-10-18T01:25:30.732Z,99624.70
2022-10-18T01:28:02.486Z,99618.97
2022-10-18T01:30:34.643Z,99620.65
2022-10-18T01:33:09.512Z,99619.88
2022-10-18T01:35:42.975Z,99621.83
2022-10-18T01:38:14.206Z,99619.04
2022-10-18T01:40:43.997Z,99617.41
2022-10-18T01:43:12.777Z,99617.91
2022-10-18T01:45:40.505Z,99615.48
2022-10-18T01:48:09.102Z,99607.42
2022-10-18T01:50:35.863Z,99609.46
2022-10-18T01:53:03.284Z,99611.13
2022-10-18T01:55:47.579Z,99606.44
2022-10-18T01:58:22.635Z,99602.58
2022-10-18T02:00:59.131Z,99603.11
2022-10-18T02:03:29.396Z,99600.66
2022-10-18T02:06:07.933Z,99602.09
2022-10-18T02:08:42.882Z,99606.16
2022-10-18T02:11:12.987Z,99603.46
2022-10-18T02:13:46.052Z,99600.02
2022-10-18T02:16:19.567Z,99599.09
2022-10-18T02:18:52.090Z,99601.70
2022-10-18T02:21:21.550Z,99600.90
2022-10-18T02:23:49.193Z,99594.27
2022-10-18T02:26:16.216Z,99591.90
2022-10-18T02:28:43.829Z,99595.23
2022-10-18T02:31:10.536Z,99593.37
2022-10-18T02:33:49.769Z,99587.90
2022-10-18T02:36:24.325Z,99583.85
2022-10-18T02:38:56.257Z,99580.92
2022-10-18T02:41:25.757Z,99582.02
2022-10-18T02:43:53.027Z,99584.90
2022-10-18T02:46:21.201Z,99582.09
2022-10-18T02:48:48.468Z,99581.83
2022-10-18T02:51:15.322Z,99579.52
2022-10-18T02:53:42.560Z,99579.52
2022-10-18T02:56:10.056Z,99575.90
2022-10-18T02:58:36.704Z,99571.06
2022-10-18T03:01:03.889Z,99574.57
2022-10-18T03:03:30.577Z,99577.95
2022-10-18T03:05:57.484Z,99577.52
2022-10-18T03:08:24.226Z,99578.55
2022-10-18T03:10:50.917Z,99575.23
2022-10-18T03:13:18.088Z,99575.22
2022-10-18T03:15:45.015Z,99571.70
2022-10-18T03:18:11.871Z,99570.29
2022-10-18T03:20:38.559Z,99566.51
2022-10-18T03:23:05.689Z,99569.69
2022-10-18T03:25:32.829Z,99568.55
2022-10-18T03:27:59.493Z,99567.59
2022-10-18T03:30:26.171Z,99567.95
2022-10-18T03:32:54.310Z,99567.53
2022-10-18T03:35:21.176Z,99567.02
2022-10-18T03:37:48.424Z,99565.95
2022-10-18T03:40:15.192Z,99571.66
2022-10-18T03:42:41.887Z,99572.64
2022-10-18T03:45:09.048Z,99570.48
2022-10-18T03:47:36.648Z,99570.36
2022-10-18T03:50:03.876Z,99570.45
2022-10-18T03:52:30.914Z,99574.53
2022-10-18T03:54:57.794Z,99571.73
2022-10-18T03:57:24.502Z,99571.34
2022-10-18T03:59:51.262Z,99572.70
2022-10-18T04:02:18.181Z,99567.61
2022-10-18T04:04:45.140Z,99574.17
2022-10-18T04:07:12.019Z,99574.31
2022-10-18T04:09:38.852Z,99580.56
2022-10-18T04:12:05.734Z,99584.95
2022-10-18T04:14:32.509Z,99583.02
2022-10-18T04:16:59.380Z,99583.65
2022-10-18T04:19:27.769Z,99586.92
2022-10-18T04:21:54.538Z,99585.19
2022-10-18T04:24:21.459Z,99584.63
2022-10-18T04:26:48.150Z,99586.46
2022-10-18T04:29:16.115Z,99586.73
2022-10-18T04:31:43.382Z,99588.34
2022-10-18T04:34:10.720Z,99591.65
2022-10-18T04:36:37.637Z,99594.04
2022-10-18T04:39:05.532Z,99595.92
2022-10-18T04:41:32.345Z,99597.17
2022-10-18T04:43:59.071Z,99598.38
2022-10-18T04:46:25.900Z,99603.94
2022-10-18T04:48:52.688Z,99605.39
2022-10-18T04:51:19.516Z,99601.80
2022-10-18T04:53:46.265Z,99599.39
2022-10-18T04:56:13.044Z,99602.08
2022-10-18T04:58:39.891Z,99599.59
2022-10-18T05:01:07.795Z,99593.83
2022-10-18T05:03:34.899Z,99597.73
2022-10-18T05:06:03.069Z,99595.37
2022-10-18T05:08:31.298Z,99597.91
2022-10-18T05:10:58.079Z,99593.88
2022-10-18T05:13:25.601Z,99593.14
2022-10-18T05:15:52.445Z,99596.52
2022-10-18T05:18:19.270Z,99598.10
2022-10-18T05:20:47.119Z,99600.99
2022-10-18T05:23:13.872Z,99603.36
2022-10-18T05:25:42.570Z,99604.48
2022-10-18T05:28:34.536Z,99597.71
2022-10-18T05:31:02.237Z,99593.16
2022-10-18T05:33:29.815Z,99597.45
2022-10-18T05:35:56.579Z,99597.56
2022-10-18T05:38:23.726Z,99591.69
2022-10-18T05:40:50.725Z,99592.60
2022-10-18T05:43:18.693Z,99591.18
2022-10-18T05:45:50.016Z,99588.78
2022-10-18T05:48:17.219Z,99591.48
2022-10-18T05:50:45.329Z,99589.05
2022-10-18T05:53:18.573Z,99588.45
2022-10-18T05:56:01.723Z,99594.79
2022-10-18T05:58:28.595Z,99591.13
2022-10-18T06:00:59.290Z,99590.56
2022-10-18T06:03:27.664Z,99592.17
2022-10-18T06:06:00.322Z,99593.02
2022-10-18T06:08:27.316Z,99589.59
2022-10-18T06:10:55.010Z,99582.93
2022-10-18T06:13:22.178Z,99581.04
2022-10-18T06:15:49.166Z,99581.77
2022-10-18T06:18:16.653Z,99581.40
2022-10-18T06:20:43.368Z,99582.22
2022-10-18T06:23:10.093Z,99581.65
2022-10-18T06:25:36.908Z,99580.07
2022-10-18T06:28:07.946Z,99578.07
2022-10-18T06:30:37.206Z,99574.90
2022-10-18T06:33:04.016Z,99579.82
2022-10-18T06:35:30.862Z,99582.25
2022-10-18T06:37:57.856Z,99582.95
2022-10-18T06:40:24.837Z,99586.41
2022-10-18T06:43:00.663Z,99582.97
2022-10-18T06:45:37.407Z,99580.24
2022-10-18T06:48:04.359Z,99579.97
2022-10-18T06:50:31.587Z,99579.66
2022-10-18T06:52:58.938Z,99575.73
2022-10-18T06:55:25.668Z,99573.30
2022-10-18T06:57:53.543Z,99569.55
2022-10-18T07:00:20.320Z,99571.95
2022-10-18T07:02:47.063Z,99567.89
2022-10-18T07:05:14.319Z,99569.42
2022-10-18T07:07:41.056Z,99569.70
2022-10-18T07:10:11.197Z,99566.86
2022-10-18T07:12:39.724Z,99565.16
2022-10-18T07:15:09.361Z,99566.42
2022-10-18T07:17:37.038Z,99565.39
2022-10-18T07:20:04.488Z,99564.66
2022-10-18T07:22:31.239Z,99563.04
2022-10-18T07:24:57.955Z,99565.86
2022-10-18T07:27:24.691Z,99565.94
2022-10-18T07:29:51.574Z,99564.24
2022-10-18T07:32:18.253Z,99557.64
2022-10-18T07:34:45.103Z,99556.95
2022-10-18T07:37:11.888Z,99561.47
2022-10-18T07:39:38.856Z,99561.76
2022-10-18T07:42:05.593Z,99565.66
2022-10-18T07:44:32.292Z,99565.50
2022-10-18T07:46:59.232Z,99559.73
2022-10-18T07:49:26.124Z,99558.20
2022-10-18T07:51:52.824Z,99561.80
2022-10-18T07:54:20.249Z,99557.91
2022-10-18T07:56:47.334Z,99551.42
2022-10-18T07:59:14.355Z,99545.88
2022-10-18T08:01:41.413Z,99545.03
2022-10-18T08:04:11.600Z,99539.86
2022-10-18T08:06:41.065Z,99542.14
2022-10-18T08:09:11.283Z,99535.15
2022-10-18T08:11:38.823Z,99525.10
2022-10-18T08:14:05.819Z,99521.94
2022-10-18T08:18:59.419Z,99517.02
2022-10-18T08:21:26.677Z,99510.89
2022-10-18T08:23:54.163Z,99507.80
2022-10-18T08:26:23.219Z,99506.02
2022-10-18T08:28:58.277Z,99501.39
2022-10-18T08:31:36.576Z,99498.63
2022-10-18T08:34:03.430Z,99500.89
2022-10-18T08:36:30.169Z,99498.28
2022-10-18T08:38:56.988Z,99496.61
2022-10-18T08:41:46.464Z,99491.54
2022-10-18T08:44:18.722Z,99487.11
2022-10-18T08:46:48.416Z,99486.48
2022-10-18T08:49:34.366Z,99484.90
2022-10-18T08:52:02.689Z,99489.52
2022-10-18T08:54:44.489Z,99483.33
2022-10-18T08:57:16.040Z,99480.63
2022-10-18T08:59:44.856Z,99478.14
2022-10-18T09:02:43.058Z,99476.75
2022-10-18T09:05:25.378Z,99476.73
2022-10-18T09:08:26.254Z,99470.65
2022-10-18T09:11:10.173Z,99465.65
2022-10-18T09:13:49.050Z,99461.88
2022-10-18T09:16:20.626Z,99461.04
2022-10-18T09:18:52.087Z,99467.75
2022-10-18T09:21:35.287Z,99467.05
2022-10-18T09:24:14.258Z,99461.84
2022-10-18T09:26:47.820Z,99461.54
2022-10-18T09:29:40.292Z,99454.37
2022-10-18T09:32:36.021Z,99455.63
2022-10-18T09:35:14.954Z,99449.56
2022-10-18T09:37:44.108Z,99452.55
2022-10-18T09:40:24.975Z,99446.35
2022-10-18T09:43:12.498Z,99450.16
2022-10-18T09:45:43.386Z,99449.91
2022-10-18T09:48:17.300Z,99445.45
2022-10-18T09:50:57.890Z,99441.58
2022-10-18T09:53:38.598Z,99435.48
2022-10-18T09:56:09.848Z,99437.36
2022-10-18T09:58:48.012Z,99439.66
2022-10-18T10:01:22.071Z,99436.45
2022-10-18T10:03:48.955Z,99430.77
2022-10-18T10:06:23.721Z,99429.58
2022-10-18T10:08:59.401Z,99427.80
2022-10-18T10:11:29.937Z,99427.23
2022-10-18T10:14:08.305Z,99421.27
2022-10-18T10:16:44.937Z,99416.16
2022-10-18T10:19:24.541Z,99412.83
2022-10-18T10:21:55.172Z,99402.16
2022-10-18T10:24:31.171Z,99404.69
2022-10-18T10:27:02.005Z,99394.65
2022-10-18T10:29:45.535Z,99391.21
2022-10-18T10:32:16.102Z,99390.50
2022-10-18T10:34:44.803Z,99388.36
2022-10-18T10:37:27.835Z,99384.33
2022-10-18T10:40:18.476Z,99377.40
2022-10-18T10:43:19.640Z,99371.30
2022-10-18T10:46:08.905Z,99364.98
2022-10-18T10:49:08.447Z,99364.88
2022-10-18T10:51:41.393Z,99361.50
2022-10-18T10:54:23.526Z,99354.23
2022-10-18T10:57:08.626Z,99349.38
2022-10-18T10:59:53.526Z,99345.21
2022-10-18T11:02:36.804Z,99341.02
2022-10-18T11:05:23.495Z,99339.36
2022-10-18T11:07:55.266Z,99333.27
2022-10-18T11:10:27.366Z,99326.80
2022-10-18T11:13:04.320Z,99320.38
2022-10-18T11:15:36.662Z,99313.75
2022-10-18T11:18:19.560Z,99310.53
2022-10-18T11:20:59.612Z,99311.03
2022-10-18T11:23:32.131Z,99306.69
2022-10-18T11:26:09.592Z,99305.08
2022-10-18T11:28:36.358Z,99301.59
2022-10-18T11:31:21.413Z,99296.53
2022-10-18T11:34:18.942Z,99299.96
2022-10-18T11:37:27.673Z,99294.66
2022-10-18T11:40:26.698Z,99286.14
2022-10-18T11:42:59.340Z,99284.69
2022-10-18T11:45:47.381Z,99278.95
2022-10-18T11:48:40.459Z,99277.63
2022-10-18T11:51:34.139Z,99269.24
2022-10-18T11:54:17.279Z,99265.59
2022-10-18T11:57:07.756Z,99260.27
2022-10-18T11:59:46.096Z,99253.23
2022-10-18T12:02:33.116Z,99250.79
2022-10-18T12:05:23.546Z,99243.17
2022-10-18T12:08:03.426Z,99240.27
2022-10-18T12:10:45.705Z,99239.53
2022-10-18T12:13:40.886Z,99226.89
2022-10-18T12:16:09.618Z,99223.09
2022-10-18T12:18:45.666Z,99220.98
2022-10-18T12:21:13.182Z,99219.16
2022-10-18T12:23:59.549Z,99214.15
2022-10-18T12:26:28.598Z,99206.98
2022-10-18T12:28:55.633Z,99202.55
2022-10-18T12:31:34.019Z,99198.63
2022-10-18T12:34:09.701Z,99194.13
2022-10-18T12:39:43.669Z,99176.81
2022-10-18T12:42:21.802Z,99178.92
2022-10-18T12:44:49.056Z,99171.43
2022-10-18T12:47:24.313Z,99162.55
2022-10-18T12:50:02.985Z,99157.94
2022-10-18T12:52:34.512Z,99156.56
2022-10-18T12:58:14.837Z,99155.26
2022-10-18T13:00:42.739Z,99156.36
2022-10-18T13:03:13.090Z,99155.03
2022-10-18T13:05:56.279Z,99150.94
2022-10-18T13:08:32.937Z,99147.52
2022-10-18T13:11:11.310Z,99144.33
2022-10-18T13:14:18.020Z,99138.30
2022-10-18T13:17:23.848Z,99139.80
2022-10-18T13:20:25.098Z,99139.20
2022-10-18T13:23:05.206Z,99131.92
2022-10-18T13:25:51.304Z,99128.11
2022-10-18T13:28:37.802Z,99131.67
2022-10-18T13:31:23.254Z,99131.79
2022-10-18T13:33:51.136Z,99125.48
2022-10-18T13:36:25.359Z,99122.85
2022-10-18T13:39:08.511Z,99118.63
2022-10-18T13:41:56.543Z,99118.73
2022-10-18T13:44:55.517Z,99113.55
2022-10-18T13:47:50.164Z,99104.34
2022-10-18T13:50:38.212Z,99106.31
2022-10-18T13:53:23.007Z,99102.27
2022-10-18T13:56:04.820Z,99100.75
2022-10-18T13:59:13.500Z,99093.35
2022-10-18T14:02:30.704Z,99092.08
2022-10-18T14:05:24.949Z,99088.82
2022-10-18T14:08:09.597Z,99080.44
2022-10-18T14:11:01.270Z,99076.00
2022-10-18T14:13:53.771Z,99076.76
2022-10-18T14:16:46.429Z,99084.79
2022-10-18T14:19:29.485Z,99083.63
2022-10-18T14:22:13.168Z,99089.88
2022-10-18T14:30:11.995Z,99067.40
2022-10-18T14:32:51.001Z,99064.54
2022-10-18T14:35:37.119Z,99065.09
2022-10-18T14:38:06.783Z,99063.40
2022-10-18T14:40:36.137Z,99062.21
2022-10-18T14:43:10.773Z,99062.54
2022-10-18T14:45:38.343Z,99057.54
2022-10-18T14:48:08.064Z,99060.59
2022-10-18T14:50:35.001Z,99060.08
2022-10-18T14:53:07.532Z,99051.88
2022-10-18T14:55:35.680Z,99051.09
2022-10-18T14:58:03.132Z,99043.71
2022-10-18T15:00:36.426Z,99045.02
2022-10-18T15:03:07.451Z,99044.95
2022-10-18T15:05:35.415Z,99042.89
2022-10-18T15:08:02.537Z,99044.92
2022-10-18T15:10:32.917Z,99034.84
2022-10-18T15:13:11.194Z,99039.44
2022-10-18T15:15:39.396Z,99033.23
2022-10-18T15:18:09.387Z,99029.21
2022-10-18T15:20:42.658Z,99033.60
2022-10-18T15:23:28.146Z,99035.20
2022-10-18T15:26:03.701Z,99028.48
2022-10-18T15:28:36.051Z,99027.80
2022-10-18T15:31:03.188Z,99029.59
2022-10-18T15:33:34.835Z,99024.45
2022-10-18T15:36:11.395Z,99023.89
2022-10-18T15:38:39.084Z,99026.55
2022-10-18T15:41:36.857Z,99024.29
2022-10-18T15:44:13.185Z,99024.30
2022-10-18T15:46:41.150Z,99027.21
2022-10-18T15:49:24.443Z,99024.61
2022-10-18T15:52:27.647Z,99026.42
2022-10-18T15:54:56.022Z,99023.92
2022-10-18T15:57:26.667Z,99023.54
2022-10-18T16:00:04.092Z,99024.92
2022-10-18T16:02:39.079Z,99026.77
2022-10-18T16:05:06.065Z,99025.95
2022-10-18T16:07:32.973Z,99025.41
2022-10-18T16:10:00.031Z,99023.98
2022-10-18T16:12:26.865Z,99025.50
2022-10-18T16:14:53.592Z,99030.20
2022-10-18T16:17:22.686Z,99031.16
2022-10-18T16:19:50.496Z,99032.79
2022-10-18T16:22:20.498Z,99035.15
2022-10-18T16:24:48.967Z,99034.92
2022-10-18T16:27:17.119Z,99037.98
2022-10-18T16:29:44.104Z,99041.27
2022-10-18T16:32:11.729Z,99043.84
2022-10-18T16:34:41.696Z,99048.37
2022-10-18T16:37:12.246Z,99050.39
2022-10-18T16:39:39.209Z,99047.16
2022-10-18T16:42:06.841Z,99051.51
2022-10-18T16:44:34.151Z,99048.70
2022-10-18T16:47:01.302Z,99054.11
2022-10-18T16:49:28.552Z,99054.73
2022-10-18T16:51:55.954Z,99061.67
2022-10-18T16:54:23.790Z,99063.68
2022-10-18T16:56:51.365Z,99058.65
2022-10-18T16:59:24.809Z,99061.00
2022-10-18T17:01:54.061Z,99058.23
2022-10-18T17:04:22.430Z,99063.63
2022-10-18T17:06:49.518Z,99068.77
2022-10-18T17:09:18.002Z,99072.75
2022-10-18T17:11:45.732Z,99071.67
2022-10-18T17:14:12.973Z,99071.56
2022-10-18T17:16:43.578Z,99075.37
2022-10-18T17:19:13.566Z,99075.16
2022-10-18T17:21:40.641Z,99075.88
2022-10-18T17:24:07.671Z,99078.39
2022-10-18T17:26:40.933Z,99081.05
2022-10-18T17:29:12.629Z,99085.83
2022-10-18T17:31:41.373Z,99085.09
2022-10-18T17:34:09.500Z,99085.42
2022-10-18T17:36:38.370Z,99086.73
2022-10-18T17:39:06.053Z,99082.50
2022-10-18T17:41:33.883Z,99086.48
2022-10-18T17:44:05.944Z,99084.09
2022-10-18T17:46:34.358Z,99084.02
2022-10-18T17:49:03.142Z,99087.94
2022-10-18T17:51:30.025Z,99090.69
2022-10-18T17:53:57.547Z,99086.23
2022-10-18T17:56:27.689Z,99085.77
2022-10-18T17:58:56.526Z,99090.17
2022-10-18T18:01:23.973Z,99090.75
2022-10-18T18:03:57.077Z,99087.95
2022-10-18T18:06:31.413Z,99090.05
2022-10-18T18:09:02.213Z,99093.83
2022-10-18T18:11:34.815Z,99092.42
2022-10-18T18:14:03.064Z,99091.52
2022-10-18T18:16:36.101Z,99093.30
2022-10-18T18:22:32.862Z,99090.64
2022-10-18T18:25:04.611Z,99089.19
2022-10-18T18:27:32.627Z,99088.04
2022-10-18T18:29:59.506Z,99090.31
2022-10-18T18:32:27.050Z,99092.90
2022-10-18T18:34:54.261Z,99096.36
2022-10-18T18:37:24.536Z,99095.27
2022-10-18T18:40:07.813Z,99092.52
2022-10-18T18:42:43.805Z,99095.12
2022-10-18T18:45:14.663Z,99097.13
2022-10-18T18:48:02.157Z,99101.06
2022-10-18T18:50:33.190Z,99109.64
2022-10-18T18:53:00.163Z,99109.62
2022-10-18T18:55:27.499Z,99108.52
2022-10-18T18:57:56.476Z,99112.45
2022-10-18T19:00:25.913Z,99110.73
2022-10-18T19:02:54.343Z,99114.50
2022-10-18T19:05:33.305Z,99112.80
2022-10-18T19:08:02.213Z,99114.13
2022-10-18T19:10:32.036Z,99110.41
2022-10-18T19:12:59.996Z,99115.13
2022-10-18T19:15:28.369Z,99114.34
2022-10-18T19:17:57.113Z,99122.82
2022-10-18T19:20:26.020Z,99126.05
2022-10-18T19:22:54.046Z,99130.55
2022-10-18T19:25:27.163Z,99137.27
2022-10-18T19:27:56.092Z,99144.25
2022-10-18T19:30:26.234Z,99150.50
2022-10-18T19:33:01.248Z,99153.45
2022-10-18T19:35:31.085Z,99168.58
2022-10-18T19:38:00.774Z,99174.58
2022-10-18T19:40:28.493Z,99183.62
2022-10-18T19:42:58.054Z,99191.80
2022-10-18T19:45:26.004Z,99189.50
2022-10-18T19:47:53.305Z,99185.90
2022-10-18T19:50:20.204Z,99194.79
2022-10-18T19:52:48.000Z,99194.27
2022-10-18T19:55:14.857Z,99200.57
2022-10-18T19:57:42.132Z,99193.86
2022-10-18T20:00:10.832Z,99189.73
2022-10-18T20:02:41.308Z,99189.65
2022-10-18T20:05:08.696Z,99194.46
2022-10-18T20:07:36.930Z,99207.59
2022-10-18T20:10:04.426Z,99204.59
2022-10-18T20:12:31.515Z,99208.89
2022-10-18T20:14:58.692Z,99212.49
2022-10-18T20:17:25.780Z,99227.13
2022-10-18T20:19:52.570Z,99231.77
2022-10-18T20:22:19.617Z,99238.91
2022-10-18T20:24:47.411Z,99245.32
2022-10-18T20:27:14.168Z,99250.36
2022-10-18T20:29:41.133Z,99254.98
2022-10-18T20:32:08.886Z,99252.56
2022-10-18T20:34:35.611Z,99252.43
2022-10-18T20:37:02.382Z,99258.70
2022-10-18T20:39:29.096Z,99262.08
2022-10-18T20:41:55.916Z,99266.01
2022-10-18T20:44:22.783Z,99269.07
2022-10-18T20:46:49.669Z,99273.35
2022-10-18T20:49:17.053Z,99276.10
2022-10-18T20:51:44.332Z,99278.65
2022-10-18T20:54:11.938Z,99286.41
2022-10-18T20:56:39.250Z,99286.91
2022-10-18T20:59:09.922Z,99282.05
2022-10-18T21:01:39.040Z,99281.85
2022-10-18T21:04:08.532Z,99282.91
2022-10-18T21:06:41.150Z,99285.06
2022-10-18T21:09:13.001Z,99285.11
2022-10-18T21:11:42.063Z,99281.95
2022-10-18T21:14:13.261Z,99280.65
2022-10-18T21:16:41.219Z,99282.14
2022-10-18T21:19:13.098Z,99287.42
2022-10-18T21:21:46.094Z,99291.23
2022-10-18T21:24:13.825Z,99289.58
2022-10-18T21:26:41.622Z,99288.97
2022-10-18T21:29:08.817Z,99284.70
2022-10-18T21:31:39.783Z,99288.62
2022-10-18T21:34:13.014Z,99286.78
2022-10-18T21:36:41.022Z,99282.67
2022-10-18T21:39:12.027Z,99281.43
2022-10-18T21:41:39.071Z,99280.16
2022-10-18T21:44:08.359Z,99279.88
2022-10-18T21:46:39.497Z,99278.34
2022-10-18T21:49:08.562Z,99279.59
2022-10-18T21:51:36.462Z,99274.23
2022-10-18T21:54:03.576Z,99268.28
2022-10-18T21:56:32.711Z,99261.85
2022-10-18T21:59:00.284Z,99265.92
2022-10-18T22:01:32.354Z,99270.02
2022-10-18T22:04:01.089Z,99270.83
2022-10-18T22:06:32.178Z,99271.45
2022-10-18T22:09:03.452Z,99275.41
2022-10-18T22:11:39.893Z,99276.50
2022-10-18T22:14:06.736Z,99279.70
2022-10-18T22:16:34.182Z,99276.31
2022-10-18T22:19:03.294Z,99279.55
2022-10-18T22:21:30.291Z,99275.73
2022-10-18T22:23:58.385Z,99274.11
2022-10-18T22:26:29.174Z,99271.64
2022-10-18T22:28:59.796Z,99268.98
2022-10-18T22:31:30.058Z,99271.44
2022-10-18T22:33:59.859Z,99271.33
2022-10-18T22:36:27.466Z,99268.73
2022-10-18T22:38:54.545Z,99263.95
2022-10-18T22:41:21.388Z,99264.54
2022-10-18T22:43:50.433Z,99264.30
2022-10-18T22:46:17.800Z,99262.06
2022-10-18T22:48:45.017Z,99270.31
2022-10-18T22:51:13.016Z,99269.98
2022-10-18T22:53:40.767Z,99268.44
2022-10-18T22:56:10.538Z,99267.40
2022-10-18T22:58:37.373Z,99271.45
2022-10-18T23:01:08.999Z,99278.25
2022-10-18T23:03:37.277Z,99283.96
2022-10-18T23:06:05.513Z,99281.13
2022-10-18T23:08:32.850Z,99285.00
2022-10-18T23:11:00.491Z,99284.30
2022-10-18T23:13:27.968Z,99278.42
2022-10-18T23:16:04.450Z,99285.06
2022-10-18T23:18:32.772Z,99290.41
2022-10-18T23:21:02.708Z,99290.71
2022-10-18T23:23:34.926Z,99291.39
2022-10-18T23:26:04.041Z,99286.45
2022-10-18T23:28:34.809Z,99283.59
2022-10-18T23:31:07.714Z,99279.48
2022-10-18T23:33:35.066Z,99279.50
2022-10-18T23:36:02.225Z,99275.70
2022-10-18T23:38:30.935Z,99275.59
2022-10-18T23:40:58.538Z,99284.30
2022-10-18T23:43:25.628Z,99286.48
2022-10-18T23:45:52.405Z,99279.80
2022-10-18T23:48:19.139Z,99282.48
2022-10-18T23:50:46.056Z,99279.10
2022-10-18T23:53:12.852Z,99283.09
2022-10-18T23:55:39.588Z,99280.21
2022-10-18T23:58:06.341Z,99275.50
